Очерёдность:

Vox populi vox Dei - Ирвин Смит.

Contumacia cumulat poenam - Левий Акерман (ГМ).

Ad meliora tempora - Олуо Боссард (ГМ).



Вверх страницы

Вниз страницы

Advancing Giants: Palladium Of Liberty

Объявление

Информация о пользователе

Привет, Гость! Войдите или зарегистрируйтесь.


Вы здесь » Advancing Giants: Palladium Of Liberty » Школа выживания


Школа выживания

Тем 1 страница 30 из 52

Тема Ответов Просмотров Последнее сообщение
1 Важно: Закрыта Знакомство с каноном  Levi
1 669 2013-11-12 13:42:30  Levi
2 Важно: Закрыта Устав  Levi
0 5418 2013-09-03 08:01:34  Levi
3 Важно: Закрыта Действующие лица  Levi
0 9083 2013-09-03 08:01:04  Levi
4 Важно: Закрыта Сценарий  Levi
0 4831 2013-09-03 07:59:12  Levi
2 15 2022-11-25 17:01:59  Leupoldaxh
0 25 2022-11-08 14:25:18  Airbladepkl
0 4 2022-11-07 11:02:50  GeorgeTouck
0 2 2022-11-07 09:39:29  ltdcodial
9 writing motor skill  Blenderruw
0 7 2022-11-06 01:21:32  Blenderruw
0 3 2022-11-05 07:00:38  Edelbrockfjh
1 17 2022-11-04 10:38:04  qcdigitalwu
12 Good models  Warsawvop
0 22 2022-10-27 16:41:35  Warsawvop
0 13 2022-10-23 18:10:21  AgustinWax
14 handwritten texts,  Visionxgo
0 11 2022-10-19 13:55:36  Visionxgo
15 have a huge impact  RainMachinezcr
0 9 2022-10-17 15:39:42  RainMachinezcr
0 8 2022-10-16 21:59:55  Nespressobrs
17 Проходной двор  Levi  [ 1 2 3  22 ]
858 25753 2022-10-15 03:24:35  Carpettpz
0 11 2022-10-10 07:08:42  DavidHag
19 indistinct (even for a person  Fingerboardnmw
0 8 2022-10-08 18:34:06  Fingerboardnmw
0 5 2022-10-06 18:51:56  Broncokuz
0 8 2022-10-05 23:37:07  Vintageidy
22 Examining handwritten texts  Sprinklernfm
2 44 2022-10-05 07:57:11  Serieshki
23 K. D. Balmont and barely  Leupoldqkt
0 9 2022-09-21 16:55:58  Leupoldqkt
0 12 2022-09-13 07:03:47  Dormaneco
0 5 2022-09-13 06:46:27  Wirelessytm
0 7 2022-09-13 05:52:11  Amazonnnmid
27 and an objective plan.  Blendernro
0 17 2022-09-08 00:49:03  Blendernro
28 and print on printers).  Documentbwy
0 11 2022-09-05 18:38:20  Documentbwy
1 15 2022-08-31 17:21:04  Leupoldovi
30 as a scientific fact.  Epiphoneedv
0 4 2022-08-31 14:57:21  Epiphoneedv

Вы здесь » Advancing Giants: Palladium Of Liberty » Школа выживания